createdAt,value
2023-03-02T00:07:46.244Z,-4.19
2023-03-02T00:17:53.515Z,-4.05
2023-03-02T00:28:00.770Z,-3.89
2023-03-02T00:38:07.514Z,-3.81
2023-03-02T00:48:14.577Z,-3.89
2023-03-02T00:58:21.630Z,-3.93
2023-03-02T01:08:28.783Z,-3.99
2023-03-02T01:18:38.900Z,-4.05
2023-03-02T01:28:46.294Z,-4.14
2023-03-02T01:38:54.475Z,-4.19
2023-03-02T01:49:05.410Z,-4.16
2023-03-02T01:59:10.045Z,-4.08
2023-03-02T02:09:19.542Z,-4.05
2023-03-02T02:19:28.250Z,-3.99
2023-03-02T02:29:40.165Z,-4.09
2023-03-02T02:39:48.556Z,-4.30
2023-03-02T02:49:55.845Z,-4.41
2023-03-02T03:00:06.724Z,-4.51
2023-03-02T03:10:12.035Z,-4.65
2023-03-02T03:20:20.642Z,-4.80
2023-03-02T03:30:27.887Z,-4.83
2023-03-02T03:40:36.028Z,-4.69
2023-03-02T03:50:43.556Z,-4.55
2023-03-02T04:00:49.688Z,-4.44
2023-03-02T04:10:57.087Z,-4.42
2023-03-02T04:21:04.231Z,-4.63
2023-03-02T04:31:11.958Z,-4.76
2023-03-02T04:41:19.663Z,-4.84
2023-03-02T04:51:30.145Z,-4.99
2023-03-02T05:01:37.612Z,-5.09
2023-03-02T05:11:45.028Z,-5.02
2023-03-02T05:21:51.976Z,-4.88
2023-03-02T05:31:59.222Z,-4.75
2023-03-02T05:42:06.136Z,-4.54
2023-03-02T05:52:13.283Z,-4.36
2023-03-02T06:02:20.639Z,-4.15
2023-03-02T06:12:28.531Z,-3.88
2023-03-02T06:22:35.645Z,-3.58
2023-03-02T06:32:43.473Z,-2.96
2023-03-02T06:42:50.710Z,-1.62
2023-03-02T07:03:04.919Z,0.56
2023-03-02T07:13:12.718Z,1.30
2023-03-02T07:23:24.800Z,1.92
2023-03-02T07:33:32.280Z,2.54
2023-03-02T07:43:40.197Z,3.36
2023-03-02T07:53:46.693Z,4.18
2023-03-02T08:03:54.013Z,5.16
2023-03-02T08:14:02.655Z,6.13
2023-03-02T08:24:07.596Z,5.88
2023-03-02T08:34:14.753Z,5.68
2023-03-02T08:44:22.394Z,5.97
2023-03-02T08:54:29.599Z,6.14
2023-03-02T09:04:36.407Z,6.23
2023-03-02T09:14:43.584Z,6.24
2023-03-02T09:24:50.983Z,6.45
2023-03-02T09:34:58.141Z,6.29
2023-03-02T09:45:13.916Z,6.47
2023-03-02T09:55:20.980Z,6.53
2023-03-02T10:05:26.117Z,6.83
2023-03-02T10:15:32.415Z,6.88
2023-03-02T10:25:41.443Z,6.84
2023-03-02T10:35:48.766Z,6.93
2023-03-02T10:46:01.978Z,6.77
2023-03-02T10:56:06.901Z,6.77
2023-03-02T11:06:12.529Z,6.86
2023-03-02T11:16:25.249Z,6.92
2023-03-02T11:26:35.577Z,6.93
2023-03-02T11:36:45.647Z,6.98
2023-03-02T11:46:53.756Z,7.03
2023-03-02T11:57:01.162Z,6.80
2023-03-02T12:07:18.935Z,6.93
2023-03-02T12:17:24.356Z,6.85
2023-03-02T12:27:36.109Z,6.75
2023-03-02T12:37:42.857Z,6.81
2023-03-02T12:47:58.316Z,6.80
2023-03-02T12:58:07.418Z,6.64
2023-03-02T13:08:17.671Z,6.62
2023-03-02T13:18:24.686Z,6.64
2023-03-02T13:28:34.909Z,6.67
2023-03-02T13:38:50.108Z,6.73
2023-03-02T13:49:09.245Z,6.67
2023-03-02T13:59:20.117Z,6.60
2023-03-02T14:09:27.386Z,6.55
2023-03-02T14:19:34.713Z,6.47
2023-03-02T14:29:41.834Z,6.38
2023-03-02T14:39:52.366Z,6.19
2023-03-02T14:50:01.267Z,6.11
2023-03-02T15:00:15.503Z,6.07
2023-03-02T15:10:25.302Z,5.91
2023-03-02T15:20:32.205Z,5.75
2023-03-02T15:30:38.617Z,5.61
2023-03-02T15:40:46.376Z,5.46
2023-03-02T15:50:57.698Z,5.19
2023-03-02T16:01:08.084Z,4.85
2023-03-02T16:11:18.721Z,4.49
2023-03-02T16:21:26.102Z,4.18
2023-03-02T16:31:37.817Z,3.91
2023-03-02T16:41:46.411Z,3.61
2023-03-02T16:51:58.400Z,3.26
2023-03-02T17:02:05.750Z,2.91
2023-03-02T17:12:12.993Z,2.64
2023-03-02T17:22:19.101Z,2.42
2023-03-02T17:32:26.576Z,2.24
2023-03-02T17:42:33.109Z,1.92
2023-03-02T17:52:40.698Z,1.53
2023-03-02T18:02:48.061Z,1.13
2023-03-02T18:12:54.833Z,0.75
2023-03-02T18:23:01.030Z,0.47
2023-03-02T18:33:08.500Z,0.35
2023-03-02T18:43:16.567Z,0.43
2023-03-02T18:53:22.783Z,0.29
2023-03-02T19:03:31.298Z,-0.03
2023-03-02T19:13:38.860Z,-0.42
2023-03-02T19:23:46.629Z,-0.68
2023-03-02T19:34:18.889Z,-0.89
2023-03-02T19:44:25.625Z,-1.08
2023-03-02T19:54:33.014Z,-1.19
2023-03-02T20:04:40.334Z,-1.14
2023-03-02T20:14:47.279Z,-1.21
2023-03-02T20:24:54.667Z,-1.31
2023-03-02T20:35:03.490Z,-1.54
2023-03-02T20:45:13.241Z,-1.74
2023-03-02T20:55:21.067Z,-1.78
2023-03-02T21:05:29.799Z,-1.76
2023-03-02T21:15:38.196Z,-1.67
2023-03-02T21:25:45.145Z,-1.71
2023-03-02T21:35:52.182Z,-1.93
2023-03-02T21:45:58.702Z,-2.20
2023-03-02T21:56:05.326Z,-2.42
2023-03-02T22:06:13.326Z,-2.51
2023-03-02T22:16:22.206Z,-2.48
2023-03-02T22:26:29.525Z,-2.40
2023-03-02T22:36:37.865Z,-2.34
2023-03-02T22:46:45.336Z,-2.41
2023-03-02T22:56:52.043Z,-2.62
2023-03-02T23:07:01.213Z,-2.80
2023-03-02T23:17:09.102Z,-3.06
2023-03-02T23:27:16.208Z,-3.25
2023-03-02T23:37:23.525Z,-3.30
2023-03-02T23:47:30.888Z,-3.23
2023-03-02T23:57:38.118Z,-2.99
